createdAt,value
2022-08-26T00:01:05.707Z,982.2
2022-08-26T00:03:06.886Z,982.2
2022-08-26T00:05:08.380Z,982.1
2022-08-26T00:07:09.907Z,982.1
2022-08-26T00:09:10.915Z,982.1
2022-08-26T00:11:12.116Z,982.1
2022-08-26T00:13:13.166Z,982.2
2022-08-26T00:15:14.674Z,982.1
2022-08-26T00:17:15.957Z,982.2
2022-08-26T00:19:17.469Z,982.2
2022-08-26T00:21:19.117Z,982.1
2022-08-26T00:25:22.604Z,982.1
2022-08-26T00:27:24.296Z,982.2
2022-08-26T00:29:25.204Z,982.1
2022-08-26T00:31:26.204Z,982.2
2022-08-26T00:33:27.778Z,982.2
2022-08-26T00:35:29.377Z,982.1
2022-08-26T00:37:30.386Z,982.1
2022-08-26T00:39:32.097Z,982.1
2022-08-26T00:41:33.288Z,982.2
2022-08-26T00:43:46.377Z,982.2
2022-08-26T00:45:35.653Z,982.2
2022-08-26T00:47:36.848Z,982.2
2022-08-26T00:49:38.568Z,982.2
2022-08-26T00:51:39.816Z,982.2
2022-08-26T00:53:41.438Z,982.2
2022-08-26T00:55:42.455Z,982.2
2022-08-26T00:57:43.727Z,982.3
2022-08-26T00:59:45.350Z,982.3
2022-08-26T01:01:46.756Z,982.2
2022-08-26T01:03:48.383Z,982.2
2022-08-26T01:05:50.054Z,982.2
2022-08-26T01:07:51.454Z,982.1
2022-08-26T01:09:52.616Z,982.2
2022-08-26T01:11:54.250Z,982.2
2022-08-26T01:13:55.691Z,982.1
2022-08-26T01:15:57.169Z,982.2
2022-08-26T01:17:58.655Z,982.1
2022-08-26T01:20:00.191Z,982.1
2022-08-26T01:24:03.088Z,982.1
2022-08-26T01:26:04.050Z,982.1
2022-08-26T01:28:05.038Z,982.1
2022-08-26T01:30:06.261Z,982.2
2022-08-26T01:32:07.739Z,982
2022-08-26T01:34:09.003Z,982.1
2022-08-26T01:36:10.478Z,982.1
2022-08-26T01:38:12.173Z,982.1
2022-08-26T01:40:13.218Z,982.1
2022-08-26T01:42:14.965Z,982.1
2022-08-26T01:44:16.192Z,982
2022-08-26T01:46:17.824Z,982.1
2022-08-26T01:50:27.943Z,982.1
2022-08-26T01:52:22.684Z,982.1
2022-08-26T01:54:24.268Z,982.2
2022-08-26T01:56:25.831Z,982.1
2022-08-26T01:58:27.094Z,982.2
2022-08-26T02:00:28.966Z,982.1
2022-08-26T02:02:30.372Z,982.1
2022-08-26T02:04:31.846Z,982.2
2022-08-26T02:06:32.938Z,982.2
2022-08-26T02:08:34.790Z,982.2
2022-08-26T02:10:36.506Z,982.2
2022-08-26T02:12:38.171Z,982.1
2022-08-26T02:14:42.380Z,982.2
2022-08-26T02:16:40.102Z,982.2
2022-08-26T02:18:41.619Z,982.2
2022-08-26T02:19:25.372Z,982.1
2022-08-26T02:23:27.762Z,982.3
2022-08-26T02:25:29.152Z,982.2
2022-08-26T02:27:32.391Z,982.2
2022-08-26T02:29:31.869Z,982.2
2022-08-26T02:31:33.294Z,982.1
2022-08-26T02:33:35.072Z,982.2
2022-08-26T02:35:36.124Z,982.2
2022-08-26T02:37:37.007Z,982.2
2022-08-26T02:39:38.638Z,982.2
2022-08-26T02:43:42.046Z,982.1
2022-08-26T02:45:43.291Z,982
2022-08-26T02:47:44.228Z,982.1
2022-08-26T02:49:47.185Z,982
2022-08-26T02:51:47.237Z,982.1
2022-08-26T02:53:48.758Z,982.1
2022-08-26T02:55:49.962Z,982.1
2022-08-26T02:57:51.154Z,982.1
2022-08-26T02:59:52.622Z,982.1
2022-08-26T03:01:55.972Z,982
2022-08-26T03:03:55.080Z,982
2022-08-26T03:05:56.929Z,982
2022-08-26T03:07:58.196Z,981.9
2022-08-26T03:09:59.816Z,982
2022-08-26T03:14:03.457Z,982
2022-08-26T03:16:03.683Z,982
2022-08-26T03:18:05.485Z,981.9
2022-08-26T03:20:07.173Z,982
2022-08-26T03:22:09.047Z,981.9
2022-08-26T03:24:10.124Z,981.9
2022-08-26T03:26:11.379Z,982
2022-08-26T03:28:12.698Z,981.9
2022-08-26T03:30:13.935Z,981.9
2022-08-26T03:32:15.337Z,981.9
2022-08-26T03:34:16.911Z,981.9
2022-08-26T03:36:17.955Z,981.9
2022-08-26T03:38:19.674Z,981.9
2022-08-26T03:40:20.821Z,982
2022-08-26T03:42:21.981Z,982
2022-08-26T03:44:23.523Z,982
2022-08-26T03:46:24.617Z,982.1
2022-08-26T03:48:25.476Z,982.1
2022-08-26T03:50:26.947Z,982.1
2022-08-26T03:52:28.271Z,982
2022-08-26T03:54:29.932Z,982
2022-08-26T03:56:31.061Z,982
2022-08-26T03:58:32.469Z,982
2022-08-26T04:00:33.407Z,982
2022-08-26T04:02:34.972Z,982
2022-08-26T04:04:36.651Z,981.9
2022-08-26T04:08:39.617Z,982
2022-08-26T04:10:40.888Z,981.9
2022-08-26T04:12:42.088Z,981.9
2022-08-26T04:14:43.104Z,981.9
2022-08-26T04:18:46.494Z,982
2022-08-26T04:20:55.444Z,981.9
2022-08-26T04:22:48.401Z,981.9
2022-08-26T04:24:49.690Z,981.9
2022-08-26T04:26:50.937Z,981.9
2022-08-26T04:28:52.298Z,981.8
2022-08-26T04:30:54.214Z,981.9
2022-08-26T04:34:57.004Z,981.8
2022-08-26T04:36:58.155Z,981.9
2022-08-26T04:38:59.207Z,981.9
2022-08-26T04:41:00.228Z,981.9
2022-08-26T04:43:01.388Z,981.9
2022-08-26T04:45:02.317Z,981.9
2022-08-26T04:47:03.732Z,981.9
2022-08-26T04:49:05.350Z,981.9
2022-08-26T04:51:07.008Z,981.9
2022-08-26T04:53:08.180Z,981.8
2022-08-26T04:55:09.498Z,981.9
2022-08-26T04:57:10.456Z,981.9
2022-08-26T04:59:14.982Z,982
2022-08-26T05:01:13.346Z,981.9
2022-08-26T05:03:14.409Z,982
2022-08-26T05:05:15.978Z,981.9
2022-08-26T05:07:17.594Z,982
2022-08-26T05:09:19.363Z,982
2022-08-26T05:11:20.269Z,981.9
2022-08-26T05:13:21.247Z,982
2022-08-26T05:15:22.891Z,982
2022-08-26T05:17:24.438Z,982
2022-08-26T05:19:25.568Z,982
2022-08-26T05:21:26.566Z,982
2022-08-26T05:23:35.940Z,982
2022-08-26T05:25:28.995Z,982
2022-08-26T05:27:30.433Z,982
2022-08-26T05:29:31.305Z,982
2022-08-26T05:31:32.479Z,982
2022-08-26T05:33:33.627Z,982.1
2022-08-26T05:35:34.714Z,982.1
2022-08-26T05:37:36.196Z,982.1
2022-08-26T05:41:39.168Z,982
2022-08-26T05:43:40.625Z,982.1
2022-08-26T05:45:45.836Z,982.1
2022-08-26T05:47:43.167Z,982.1
2022-08-26T05:49:49.487Z,982.1
2022-08-26T05:51:45.958Z,982
2022-08-26T05:53:54.699Z,982
2022-08-26T05:55:49.136Z,982.1
2022-08-26T05:57:50.183Z,982.1
2022-08-26T05:59:51.074Z,982.1
2022-08-26T06:01:52.368Z,982.1
2022-08-26T06:03:53.277Z,982.1
2022-08-26T06:07:56.020Z,982.1
2022-08-26T06:10:15.317Z,982.1
2022-08-26T06:11:58.634Z,982.1
2022-08-26T06:14:03.234Z,982.2
2022-08-26T06:16:01.140Z,982.1
2022-08-26T06:18:02.192Z,982.1
2022-08-26T06:22:05.014Z,982.1
2022-08-26T06:24:06.728Z,982.1
2022-08-26T06:26:07.953Z,982.2
2022-08-26T06:28:09.496Z,982.1
2022-08-26T06:30:10.483Z,982.1
2022-08-26T06:32:11.533Z,982.1
2022-08-26T06:34:13.867Z,982.1
2022-08-26T06:38:16.198Z,982.1
2022-08-26T06:40:17.329Z,982.2
2022-08-26T06:42:18.374Z,982.2
2022-08-26T06:44:20.042Z,982.2
2022-08-26T06:46:21.544Z,982.2
2022-08-26T06:48:23.084Z,982.2
2022-08-26T06:50:24.547Z,982.3
2022-08-26T06:52:25.648Z,982.3
2022-08-26T06:54:26.896Z,982.2
2022-08-26T06:56:28.390Z,982.2
2022-08-26T06:58:29.866Z,982.2
2022-08-26T07:00:31.391Z,982.2
2022-08-26T07:02:32.313Z,982.3
2022-08-26T07:04:33.109Z,982.3
2022-08-26T07:06:34.516Z,982.2
2022-08-26T07:08:36.250Z,982.2
2022-08-26T07:10:37.898Z,982.2
2022-08-26T07:12:39.415Z,982.3
2022-08-26T07:14:40.811Z,982.3
2022-08-26T07:16:42.184Z,982.3
2022-08-26T07:18:44.874Z,982.3
2022-08-26T07:20:44.724Z,982.2
2022-08-26T07:22:46.373Z,982.1
2022-08-26T07:24:47.532Z,982.2
2022-08-26T07:26:48.779Z,982.2
2022-08-26T07:28:49.648Z,982.3
2022-08-26T07:30:51.115Z,982.3
2022-08-26T07:32:52.685Z,982.2
2022-08-26T07:34:54.422Z,982.2
2022-08-26T07:36:55.593Z,982.2
2022-08-26T07:38:56.610Z,982.2
2022-08-26T07:40:58.305Z,982.2
2022-08-26T07:42:59.139Z,982.3
2022-08-26T07:45:00.850Z,982.3
2022-08-26T07:47:02.342Z,982.2
2022-08-26T07:49:03.524Z,982.3
2022-08-26T07:51:04.897Z,982.1
2022-08-26T07:53:06.326Z,982.2
2022-08-26T07:55:07.990Z,982.3
2022-08-26T07:57:09.366Z,982.3
2022-08-26T07:59:13.879Z,982.3
2022-08-26T08:01:11.937Z,982.2
2022-08-26T08:03:12.834Z,982.3
2022-08-26T08:05:14.234Z,982.3
2022-08-26T08:07:15.751Z,982.2
2022-08-26T08:09:16.720Z,982.2
2022-08-26T08:11:18.337Z,982.2
2022-08-26T08:13:19.916Z,982.2
2022-08-26T08:15:20.755Z,982.2
2022-08-26T08:17:22.132Z,982.2
2022-08-26T08:19:23.032Z,982.2
2022-08-26T08:21:24.594Z,982.2
2022-08-26T08:23:25.655Z,982.2
2022-08-26T08:25:27.139Z,982.1
2022-08-26T08:27:28.731Z,982.2
2022-08-26T08:29:30.227Z,982.1
2022-08-26T08:31:56.334Z,982.1
2022-08-26T08:33:33.412Z,982.1
2022-08-26T08:35:34.829Z,982.1
2022-08-26T08:37:36.522Z,982.1
2022-08-26T08:39:37.313Z,982.1
2022-08-26T08:43:40.193Z,982.1
2022-08-26T08:45:41.727Z,981.9
2022-08-26T08:47:42.444Z,982
2022-08-26T08:49:43.622Z,982
2022-08-26T08:51:44.784Z,982
2022-08-26T08:53:46.125Z,982
2022-08-26T08:55:47.122Z,982.1
2022-08-26T08:57:48.377Z,982.1
2022-08-26T08:59:50.044Z,982
2022-08-26T09:01:52.239Z,982
2022-08-26T09:03:51.802Z,982
2022-08-26T09:04:35.452Z,981.9
2022-08-26T09:06:36.780Z,982
2022-08-26T09:08:38.259Z,981.9
2022-08-26T09:10:39.852Z,981.9
2022-08-26T09:12:41.220Z,982
2022-08-26T09:14:42.548Z,981.9
2022-08-26T09:16:43.507Z,982
2022-08-26T09:18:45.964Z,981.9
2022-08-26T09:20:46.092Z,981.9
2022-08-26T09:22:46.992Z,981.8
2022-08-26T09:24:48.311Z,981.9
2022-08-26T09:26:49.443Z,981.8
2022-08-26T09:28:50.776Z,981.8
2022-08-26T09:30:52.197Z,981.7
2022-08-26T09:32:55.857Z,981.8
2022-08-26T09:34:54.029Z,981.6
2022-08-26T09:36:55.371Z,981.6
2022-08-26T09:38:56.611Z,981.6
2022-08-26T09:40:58.956Z,981.6
2022-08-26T09:44:59.896Z,981.5
2022-08-26T09:47:01.532Z,981.5
2022-08-26T09:49:02.561Z,981.4
2022-08-26T09:51:03.899Z,981.3
2022-08-26T09:53:04.856Z,981.4
2022-08-26T09:55:05.847Z,981.4
2022-08-26T09:57:06.890Z,981.4
2022-08-26T09:59:08.329Z,981.4
2022-08-26T10:01:09.220Z,981.3
2022-08-26T10:03:10.454Z,981.2
2022-08-26T10:05:11.839Z,981.2
2022-08-26T10:07:13.221Z,981.2
2022-08-26T10:09:14.367Z,981.2
2022-08-26T10:11:15.665Z,981.2
2022-08-26T10:13:16.674Z,981.2
2022-08-26T10:15:17.890Z,981.2
2022-08-26T10:17:19.400Z,981.2
2022-08-26T10:19:21.085Z,981.2
2022-08-26T10:21:22.037Z,981.2
2022-08-26T10:23:23.261Z,981.2
2022-08-26T10:25:24.192Z,981.2
2022-08-26T10:27:25.367Z,981.1
2022-08-26T10:29:26.154Z,981
2022-08-26T10:31:27.366Z,981
2022-08-26T10:33:28.814Z,980.9
2022-08-26T10:35:30.182Z,980.9
2022-08-26T10:37:31.743Z,981.1
2022-08-26T10:39:33.397Z,981
2022-08-26T10:41:34.650Z,981.1
2022-08-26T10:43:36.235Z,981
2022-08-26T10:45:37.153Z,981
2022-08-26T10:47:38.662Z,981
2022-08-26T10:49:39.617Z,981
2022-08-26T10:51:41.256Z,980.9
2022-08-26T10:53:42.500Z,980.9
2022-08-26T10:55:43.232Z,980.9
2022-08-26T10:57:44.426Z,980.9
2022-08-26T10:59:45.932Z,981
2022-08-26T11:03:48.506Z,981
2022-08-26T11:05:49.887Z,980.9
2022-08-26T11:07:50.754Z,980.9
2022-08-26T11:09:52.034Z,980.9
2022-08-26T11:11:53.308Z,980.8
2022-08-26T11:13:54.795Z,981
2022-08-26T11:15:56.433Z,981
2022-08-26T11:17:57.399Z,980.9
2022-08-26T11:20:00.531Z,981
2022-08-26T11:22:00.014Z,980.9
2022-08-26T11:24:01.412Z,980.9
2022-08-26T11:26:02.179Z,980.9
2022-08-26T11:28:03.994Z,980.8
2022-08-26T11:30:05.318Z,980.9
2022-08-26T11:32:06.377Z,980.9
2022-08-26T11:34:08.825Z,980.8
2022-08-26T11:36:11.556Z,980.8
2022-08-26T11:38:10.551Z,980.9
2022-08-26T11:40:11.387Z,980.7
2022-08-26T11:42:13.008Z,980.6
2022-08-26T11:44:14.575Z,980.7
2022-08-26T11:46:15.929Z,980.6
2022-08-26T11:48:16.789Z,980.7
2022-08-26T11:50:17.647Z,980.7
2022-08-26T11:52:18.463Z,980.7
2022-08-26T11:56:21.388Z,980.7
2022-08-26T11:58:22.878Z,980.6
2022-08-26T12:00:24.565Z,980.6
2022-08-26T12:02:26.231Z,980.7
2022-08-26T12:04:27.378Z,980.7
2022-08-26T12:06:28.933Z,980.6
2022-08-26T12:08:30.096Z,980.7
2022-08-26T12:10:31.146Z,980.8
2022-08-26T12:12:34.919Z,980.8
2022-08-26T12:14:33.729Z,980.8
2022-08-26T12:18:36.026Z,980.8
2022-08-26T12:20:37.169Z,980.8
2022-08-26T12:22:38.291Z,980.7
2022-08-26T12:24:39.882Z,980.6
2022-08-26T12:28:42.935Z,980.5
2022-08-26T12:30:43.695Z,980.5
2022-08-26T12:32:51.127Z,980.5
2022-08-26T12:34:46.184Z,980.5
2022-08-26T12:36:47.130Z,980.5
2022-08-26T12:38:47.998Z,980.4
2022-08-26T12:40:49.017Z,980.4
2022-08-26T12:42:50.198Z,980.3
2022-08-26T12:44:53.061Z,980.3
2022-08-26T12:46:52.161Z,980.2
2022-08-26T12:48:53.600Z,980.2
2022-08-26T12:50:54.551Z,980.2
2022-08-26T12:52:55.844Z,980.2
2022-08-26T12:54:57.229Z,980.1
2022-08-26T12:56:58.759Z,980.1
2022-08-26T12:59:00.432Z,980.2
2022-08-26T13:01:01.689Z,980.1
2022-08-26T13:03:02.859Z,980.2
2022-08-26T13:05:03.813Z,980.1
2022-08-26T13:07:04.845Z,980.2
2022-08-26T13:09:06.579Z,980.2
2022-08-26T13:11:07.814Z,980.3
2022-08-26T13:13:09.548Z,980.3
2022-08-26T13:15:10.633Z,980.4
2022-08-26T13:17:11.914Z,980.4
2022-08-26T13:19:12.728Z,980.4
2022-08-26T13:21:14.152Z,980.3
2022-08-26T13:23:15.199Z,980.3
2022-08-26T13:25:16.243Z,980.3
2022-08-26T13:27:18.035Z,980.2
2022-08-26T13:29:19.061Z,980.2
2022-08-26T13:31:20.356Z,980.1
2022-08-26T13:33:22.048Z,980.1
2022-08-26T13:35:23.323Z,980
2022-08-26T13:37:24.358Z,980.1
2022-08-26T13:39:25.075Z,980
2022-08-26T13:41:28.966Z,980
2022-08-26T13:43:27.388Z,979.9
2022-08-26T13:45:28.690Z,979.8
2022-08-26T13:47:29.819Z,979.8
2022-08-26T13:49:31.290Z,979.9
2022-08-26T13:51:32.451Z,979.8
2022-08-26T13:53:33.449Z,979.9
2022-08-26T13:55:34.753Z,979.9
2022-08-26T13:57:36.048Z,980
2022-08-26T13:59:37.255Z,980
2022-08-26T14:01:38.764Z,980
2022-08-26T14:03:40.522Z,979.9
2022-08-26T14:05:41.372Z,979.9
2022-08-26T14:07:42.934Z,979.9
2022-08-26T14:09:44.448Z,979.9
2022-08-26T14:11:50.954Z,979.9
2022-08-26T14:13:47.437Z,980
2022-08-26T14:15:48.977Z,979.9
2022-08-26T14:17:49.919Z,980.1
2022-08-26T14:19:51.500Z,980
2022-08-26T14:21:52.422Z,980
2022-08-26T14:23:53.993Z,979.8
2022-08-26T14:25:54.759Z,979.8
2022-08-26T14:27:56.497Z,979.9
2022-08-26T14:31:59.017Z,979.9
2022-08-26T14:34:00.338Z,979.9
2022-08-26T14:36:01.297Z,980
2022-08-26T14:38:02.388Z,980
2022-08-26T14:40:03.251Z,980.1
2022-08-26T14:42:04.177Z,980.1
2022-08-26T14:44:05.524Z,980.1
2022-08-26T14:46:07.187Z,980.2
2022-08-26T14:48:08.483Z,980.2
2022-08-26T14:50:10.036Z,980.2
2022-08-26T14:52:11.444Z,980.2
2022-08-26T14:54:13.225Z,980.2
2022-08-26T14:56:16.665Z,980.2
2022-08-26T14:58:15.757Z,980.2
2022-08-26T15:00:17.342Z,980.2
2022-08-26T15:02:22.231Z,980.2
2022-08-26T15:04:19.611Z,980.3
2022-08-26T15:06:21.412Z,980.3
2022-08-26T15:08:22.223Z,980.2
2022-08-26T15:10:23.240Z,980.1
2022-08-26T15:12:24.204Z,980.1
2022-08-26T15:14:26.039Z,980
2022-08-26T15:16:26.911Z,979.9
2022-08-26T15:18:28.159Z,979.9
2022-08-26T15:20:29.454Z,979.9
2022-08-26T15:22:30.552Z,979.9
2022-08-26T15:24:32.020Z,979.8
2022-08-26T15:28:34.237Z,979.9
2022-08-26T15:30:35.718Z,980.1
2022-08-26T15:32:36.985Z,979.9
2022-08-26T15:34:38.486Z,980
2022-08-26T15:36:39.869Z,980
2022-08-26T15:38:41.670Z,980
2022-08-26T15:40:43.359Z,980
2022-08-26T15:42:45.047Z,980
2022-08-26T15:44:46.315Z,980
2022-08-26T15:46:47.855Z,980
2022-08-26T15:48:48.906Z,980
2022-08-26T15:50:50.464Z,980
2022-08-26T15:51:34.191Z,980
2022-08-26T15:53:35.017Z,980
2022-08-26T15:55:36.068Z,980.1
2022-08-26T15:57:37.262Z,979.9
2022-08-26T15:59:38.563Z,980
2022-08-26T16:01:39.874Z,979.9
2022-08-26T16:03:41.128Z,979.9
2022-08-26T16:07:43.578Z,979.9
2022-08-26T16:09:45.223Z,979.9
2022-08-26T16:11:46.027Z,979.9
2022-08-26T16:13:47.079Z,979.8
2022-08-26T16:15:48.112Z,979.9
2022-08-26T16:17:49.705Z,979.8
2022-08-26T16:19:51.406Z,980
2022-08-26T16:21:52.545Z,979.9
2022-08-26T16:23:53.364Z,979.9
2022-08-26T16:25:55.004Z,979.8
2022-08-26T16:27:55.864Z,979.8
2022-08-26T16:29:56.798Z,979.8
2022-08-26T16:31:57.872Z,979.7
2022-08-26T16:33:59.453Z,979.8
2022-08-26T16:36:00.361Z,979.7
2022-08-26T16:38:01.451Z,979.6
2022-08-26T16:40:02.629Z,979.6
2022-08-26T16:42:04.266Z,979.7
2022-08-26T16:44:05.910Z,979.7
2022-08-26T16:46:07.605Z,979.7
2022-08-26T16:48:08.584Z,979.6
2022-08-26T16:50:09.703Z,979.6
2022-08-26T16:52:11.422Z,979.7
2022-08-26T16:54:13.202Z,979.7
2022-08-26T16:56:14.863Z,979.7
2022-08-26T16:58:16.545Z,979.8
2022-08-26T17:00:17.587Z,979.9
2022-08-26T17:02:19.306Z,979.9
2022-08-26T17:04:20.916Z,980
2022-08-26T17:06:21.885Z,979.9
2022-08-26T17:08:27.379Z,979.9
2022-08-26T17:10:23.737Z,979.9
2022-08-26T17:12:24.634Z,979.9
2022-08-26T17:16:27.355Z,980
2022-08-26T17:18:28.110Z,979.9
2022-08-26T17:20:29.164Z,979.9
2022-08-26T17:22:34.102Z,979.9
2022-08-26T17:24:31.508Z,979.9
2022-08-26T17:26:33.232Z,979.9
2022-08-26T17:28:34.938Z,979.9
2022-08-26T17:32:37.854Z,980
2022-08-26T17:34:39.455Z,980
2022-08-26T17:36:40.697Z,980.1
2022-08-26T17:38:42.424Z,980.1
2022-08-26T17:40:43.391Z,980.2
2022-08-26T17:42:44.287Z,980.3
2022-08-26T17:44:45.587Z,980.3
2022-08-26T17:46:46.855Z,980.2
2022-08-26T17:48:48.462Z,980.3
2022-08-26T17:50:49.998Z,980.3
2022-08-26T17:52:51.274Z,980.4
2022-08-26T17:54:52.164Z,980.4
2022-08-26T17:56:53.896Z,980.4
2022-08-26T17:58:55.403Z,980.4
2022-08-26T18:00:56.397Z,980.5
2022-08-26T18:02:58.120Z,980.5
2022-08-26T18:04:59.944Z,980.6
2022-08-26T18:07:00.971Z,980.7
2022-08-26T18:09:02.393Z,980.7
2022-08-26T18:13:04.913Z,980.8
2022-08-26T18:15:06.006Z,980.8
2022-08-26T18:17:07.261Z,980.9
2022-08-26T18:19:08.964Z,980.9
2022-08-26T18:21:10.624Z,980.8
2022-08-26T18:23:12.055Z,980.7
2022-08-26T18:25:13.470Z,980.7
2022-08-26T18:27:14.787Z,980.6
2022-08-26T18:31:17.818Z,980.7
2022-08-26T18:33:19.330Z,980.8
2022-08-26T18:35:20.827Z,980.9
2022-08-26T18:37:22.564Z,981
2022-08-26T18:39:23.810Z,981.2
2022-08-26T18:41:24.880Z,981.3
2022-08-26T18:43:26.133Z,981.4
2022-08-26T18:45:27.196Z,981.5
2022-08-26T18:47:28.397Z,981.5
2022-08-26T18:49:29.909Z,981.4
2022-08-26T18:51:30.819Z,981.5
2022-08-26T18:53:31.988Z,981.3
2022-08-26T18:55:32.896Z,981.4
2022-08-26T18:57:34.611Z,981.4
2022-08-26T18:59:35.603Z,981.5
2022-08-26T19:01:36.889Z,981.4
2022-08-26T19:03:38.281Z,981.4
2022-08-26T19:05:40.042Z,981.4
2022-08-26T19:07:41.295Z,981.4
2022-08-26T19:09:42.849Z,981.4
2022-08-26T19:11:43.802Z,981.5
2022-08-26T19:13:44.697Z,981.4
2022-08-26T19:15:45.802Z,981.4
2022-08-26T19:17:47.144Z,981.4
2022-08-26T19:19:48.465Z,981.5
2022-08-26T19:21:49.934Z,981.6
2022-08-26T19:23:51.608Z,981.7
2022-08-26T19:25:52.675Z,982
2022-08-26T19:27:54.159Z,982.3
2022-08-26T19:29:55.907Z,982.5
2022-08-26T19:31:56.785Z,982.5
2022-08-26T19:33:58.103Z,982.7
2022-08-26T19:35:59.657Z,982.8
2022-08-26T19:38:00.617Z,982.6
2022-08-26T19:40:01.740Z,982.5
2022-08-26T19:42:03.492Z,982.4
2022-08-26T19:44:05.136Z,982.4
2022-08-26T19:46:06.670Z,982.4
2022-08-26T19:48:08.024Z,982.5
2022-08-26T19:50:09.465Z,982.4
2022-08-26T19:52:11.291Z,982.5
2022-08-26T19:54:12.619Z,982.5
2022-08-26T19:56:13.950Z,982.7
2022-08-26T19:58:15.594Z,982.8
2022-08-26T20:00:17.027Z,982.9
2022-08-26T20:02:18.872Z,982.8
2022-08-26T20:04:20.191Z,982.6
2022-08-26T20:06:21.103Z,982.5
2022-08-26T20:08:22.940Z,982.4
2022-08-26T20:10:24.046Z,982.4
2022-08-26T20:12:25.797Z,982.5
2022-08-26T20:14:27.472Z,982.3
2022-08-26T20:16:29.129Z,982.3
2022-08-26T20:18:30.789Z,982.4
2022-08-26T20:20:39.814Z,982.3
2022-08-26T20:22:32.677Z,982.4
2022-08-26T20:24:33.589Z,982.3
2022-08-26T20:26:34.780Z,982.4
2022-08-26T20:28:36.175Z,982.3
2022-08-26T20:30:37.422Z,982.4
2022-08-26T20:32:39.123Z,982.3
2022-08-26T20:34:40.308Z,982.3
2022-08-26T20:36:41.353Z,982.3
2022-08-26T20:38:42.538Z,982.4
2022-08-26T20:40:43.964Z,982.5
2022-08-26T20:42:44.877Z,982.5
2022-08-26T20:44:54.196Z,982.6
2022-08-26T20:46:47.842Z,982.5
2022-08-26T20:48:49.322Z,982.5
2022-08-26T20:50:50.920Z,982.5
2022-08-26T20:54:54.247Z,982.4
2022-08-26T20:56:55.178Z,982.4
2022-08-26T20:58:56.378Z,982.4
2022-08-26T21:00:58.908Z,982.4
2022-08-26T21:02:59.539Z,982.4
2022-08-26T21:05:00.524Z,982.5
2022-08-26T21:07:01.451Z,982.4
2022-08-26T21:09:03.236Z,982.5
2022-08-26T21:11:05.029Z,982.5
2022-08-26T21:13:06.889Z,982.4
2022-08-26T21:15:07.819Z,982.4
2022-08-26T21:17:09.592Z,982.4
2022-08-26T21:19:11.102Z,982.4
2022-08-26T21:21:12.621Z,982.4
2022-08-26T21:23:13.667Z,982.4
2022-08-26T21:25:15.343Z,982.3
2022-08-26T21:27:19.588Z,982.4
2022-08-26T21:29:18.964Z,982.2
2022-08-26T21:31:20.733Z,982.3
2022-08-26T21:33:21.685Z,982.3
2022-08-26T21:35:22.803Z,982.3
2022-08-26T21:37:24.414Z,982.3
2022-08-26T21:39:25.802Z,982.3
2022-08-26T21:41:27.157Z,982.3
2022-08-26T21:43:33.628Z,982.3
2022-08-26T21:45:30.153Z,982.2
2022-08-26T21:47:31.428Z,982.3
2022-08-26T21:49:32.437Z,982.2
2022-08-26T21:51:34.016Z,982.3
2022-08-26T21:53:35.809Z,982.3
2022-08-26T21:55:37.205Z,982.3
2022-08-26T21:57:38.248Z,982.3
2022-08-26T21:59:39.715Z,982.2
2022-08-26T22:03:44.715Z,982.2
2022-08-26T22:05:44.190Z,982.3
2022-08-26T22:07:45.599Z,982.3
2022-08-26T22:09:46.662Z,982.4
2022-08-26T22:13:50.085Z,982.3
2022-08-26T22:15:51.587Z,982.3
2022-08-26T22:17:53.161Z,982.3
2022-08-26T22:19:54.054Z,982.2
2022-08-26T22:21:55.315Z,982.1
2022-08-26T22:23:58.107Z,982.1
2022-08-26T22:25:58.633Z,982.2
2022-08-26T22:28:00.267Z,982.2
2022-08-26T22:30:01.179Z,982.1
2022-08-26T22:32:02.258Z,982.1
2022-08-26T22:34:03.248Z,982.2
2022-08-26T22:36:04.152Z,982.1
2022-08-26T22:38:49.567Z,982.1
2022-08-26T22:40:51.207Z,982.1
2022-08-26T22:42:55.509Z,982.1
2022-08-26T22:44:53.943Z,982.2
2022-08-26T22:46:54.855Z,982.2
2022-08-26T22:48:55.920Z,982.1
2022-08-26T22:51:00.098Z,982.1
2022-08-26T22:52:58.478Z,982.1
2022-08-26T22:54:59.481Z,982.1
2022-08-26T22:57:00.976Z,982
2022-08-26T22:59:02.750Z,982.1
2022-08-26T23:01:04.150Z,982
2022-08-26T23:03:05.404Z,982.1
2022-08-26T23:05:07.225Z,982.2
2022-08-26T23:07:08.305Z,982
2022-08-26T23:09:09.766Z,982.1
2022-08-26T23:13:12.238Z,982.1
2022-08-26T23:15:13.437Z,982.1
2022-08-26T23:17:14.815Z,982
2022-08-26T23:19:16.570Z,982.1
2022-08-26T23:21:18.256Z,982
2022-08-26T23:23:19.252Z,982.1
2022-08-26T23:25:20.715Z,981.9
2022-08-26T23:27:22.365Z,982
2022-08-26T23:29:24.024Z,982
2022-08-26T23:31:25.902Z,981.9
2022-08-26T23:33:27.656Z,982
2022-08-26T23:35:28.520Z,981.9
2022-08-26T23:37:29.529Z,981.9
2022-08-26T23:39:30.552Z,981.9
2022-08-26T23:41:31.681Z,981.9
2022-08-26T23:43:33.029Z,981.9
2022-08-26T23:45:34.161Z,982
2022-08-26T23:47:35.124Z,982
2022-08-26T23:49:36.446Z,982
2022-08-26T23:51:37.737Z,982
2022-08-26T23:53:39.339Z,982
2022-08-26T23:55:40.699Z,981.9
2022-08-26T23:57:41.662Z,982
2022-08-26T23:59:42.540Z,982
